sensor_id;sensor_type;location;lat;lon;timestamp;P1;durP1;ratioP1;P2;durP2;ratioP2
38859;SDS011;24609;48.316;16.174;2023-04-30T00:01:43;5.90;;;4.13;;
38859;SDS011;24609;48.316;16.174;2023-04-30T00:04:09;5.32;;;3.30;;
38859;SDS011;24609;48.316;16.174;2023-04-30T00:06:35;5.07;;;2.53;;
38859;SDS011;24609;48.316;16.174;2023-04-30T00:09:00;6.13;;;3.42;;
38859;SDS011;24609;48.316;16.174;2023-04-30T00:11:26;4.88;;;3.17;;
38859;SDS011;24609;48.316;16.174;2023-04-30T00:13:52;6.53;;;3.45;;
38859;SDS011;24609;48.316;16.174;2023-04-30T00:16:18;6.32;;;3.13;;
38859;SDS011;24609;48.316;16.174;2023-04-30T00:18:43;6.97;;;3.15;;
38859;SDS011;24609;48.316;16.174;2023-04-30T00:21:09;8.43;;;3.60;;
38859;SDS011;24609;48.316;16.174;2023-04-30T00:23:35;4.38;;;2.90;;
38859;SDS011;24609;48.316;16.174;2023-04-30T00:26:01;9.18;;;4.95;;
38859;SDS011;24609;48.316;16.174;2023-04-30T00:28:27;8.15;;;4.18;;
38859;SDS011;24609;48.316;16.174;2023-04-30T00:30:52;7.20;;;3.92;;
38859;SDS011;24609;48.316;16.174;2023-04-30T00:33:18;7.82;;;3.72;;
38859;SDS011;24609;48.316;16.174;2023-04-30T00:35:44;8.00;;;3.83;;
38859;SDS011;24609;48.316;16.174;2023-04-30T00:38:10;6.68;;;3.80;;
38859;SDS011;24609;48.316;16.174;2023-04-30T00:40:36;6.80;;;3.15;;
38859;SDS011;24609;48.316;16.174;2023-04-30T00:43:03;6.13;;;3.47;;
38859;SDS011;24609;48.316;16.174;2023-04-30T00:45:29;7.97;;;3.60;;
38859;SDS011;24609;48.316;16.174;2023-04-30T00:47:54;5.28;;;3.40;;
38859;SDS011;24609;48.316;16.174;2023-04-30T00:50:21;5.90;;;3.45;;
38859;SDS011;24609;48.316;16.174;2023-04-30T00:52:47;7.15;;;3.58;;
38859;SDS011;24609;48.316;16.174;2023-04-30T00:55:13;5.45;;;3.70;;
38859;SDS011;24609;48.316;16.174;2023-04-30T00:57:39;4.30;;;3.05;;
38859;SDS011;24609;48.316;16.174;2023-04-30T01:00:05;8.52;;;3.85;;
38859;SDS011;24609;48.316;16.174;2023-04-30T01:02:35;6.30;;;3.55;;
38859;SDS011;24609;48.316;16.174;2023-04-30T01:05:04;7.13;;;4.15;;
38859;SDS011;24609;48.316;16.174;2023-04-30T01:07:30;6.03;;;4.20;;
38859;SDS011;24609;48.316;16.174;2023-04-30T01:09:57;6.15;;;4.13;;
38859;SDS011;24609;48.316;16.174;2023-04-30T01:12:28;5.65;;;4.03;;
38859;SDS011;24609;48.316;16.174;2023-04-30T01:15:00;8.38;;;4.82;;
38859;SDS011;24609;48.316;16.174;2023-04-30T01:20:28;8.63;;;4.63;;
38859;SDS011;24609;48.316;16.174;2023-04-30T01:28:34;7.78;;;3.55;;
38859;SDS011;24609;48.316;16.174;2023-04-30T01:31:01;8.20;;;4.25;;
38859;SDS011;24609;48.316;16.174;2023-04-30T01:33:27;7.78;;;4.90;;
38859;SDS011;24609;48.316;16.174;2023-04-30T01:38:44;9.25;;;4.47;;
38859;SDS011;24609;48.316;16.174;2023-04-30T01:41:24;6.97;;;4.47;;
38859;SDS011;24609;48.316;16.174;2023-04-30T01:46:36;13.38;;;6.05;;
38859;SDS011;24609;48.316;16.174;2023-04-30T01:51:40;13.23;;;5.65;;
38859;SDS011;24609;48.316;16.174;2023-04-30T01:57:13;9.95;;;5.55;;
38859;SDS011;24609;48.316;16.174;2023-04-30T01:59:42;9.82;;;5.50;;
38859;SDS011;24609;48.316;16.174;2023-04-30T02:02:09;14.57;;;7.70;;
38859;SDS011;24609;48.316;16.174;2023-04-30T02:04:34;10.02;;;5.50;;
38859;SDS011;24609;48.316;16.174;2023-04-30T02:07:00;9.35;;;4.88;;
38859;SDS011;24609;48.316;16.174;2023-04-30T02:09:26;8.30;;;4.78;;
38859;SDS011;24609;48.316;16.174;2023-04-30T02:11:51;11.38;;;6.18;;
38859;SDS011;24609;48.316;16.174;2023-04-30T02:14:17;10.57;;;5.65;;
38859;SDS011;24609;48.316;16.174;2023-04-30T02:16:43;9.70;;;4.97;;
38859;SDS011;24609;48.316;16.174;2023-04-30T02:19:09;12.40;;;6.53;;
38859;SDS011;24609;48.316;16.174;2023-04-30T02:21:35;9.63;;;4.70;;
38859;SDS011;24609;48.316;16.174;2023-04-30T02:24:01;12.73;;;6.20;;
38859;SDS011;24609;48.316;16.174;2023-04-30T02:26:26;13.25;;;6.60;;
38859;SDS011;24609;48.316;16.174;2023-04-30T02:28:52;11.63;;;5.97;;
38859;SDS011;24609;48.316;16.174;2023-04-30T02:31:18;9.70;;;4.95;;
38859;SDS011;24609;48.316;16.174;2023-04-30T02:33:43;9.52;;;4.32;;
38859;SDS011;24609;48.316;16.174;2023-04-30T02:36:09;7.68;;;5.35;;
38859;SDS011;24609;48.316;16.174;2023-04-30T02:38:35;9.80;;;4.70;;
38859;SDS011;24609;48.316;16.174;2023-04-30T02:41:00;15.32;;;5.50;;
38859;SDS011;24609;48.316;16.174;2023-04-30T02:43:27;13.05;;;6.10;;
38859;SDS011;24609;48.316;16.174;2023-04-30T02:45:52;9.68;;;5.85;;
38859;SDS011;24609;48.316;16.174;2023-04-30T02:48:18;10.23;;;5.63;;
38859;SDS011;24609;48.316;16.174;2023-04-30T02:50:44;9.80;;;6.07;;
38859;SDS011;24609;48.316;16.174;2023-04-30T02:53:09;8.68;;;4.85;;
38859;SDS011;24609;48.316;16.174;2023-04-30T02:55:35;8.55;;;5.15;;
38859;SDS011;24609;48.316;16.174;2023-04-30T02:58:01;13.13;;;6.47;;
38859;SDS011;24609;48.316;16.174;2023-04-30T03:00:27;8.55;;;5.20;;
38859;SDS011;24609;48.316;16.174;2023-04-30T03:02:52;10.10;;;5.13;;
38859;SDS011;24609;48.316;16.174;2023-04-30T03:05:18;11.38;;;6.60;;
38859;SDS011;24609;48.316;16.174;2023-04-30T03:07:43;9.82;;;5.85;;
38859;SDS011;24609;48.316;16.174;2023-04-30T03:10:09;11.57;;;5.93;;
38859;SDS011;24609;48.316;16.174;2023-04-30T03:12:35;10.05;;;5.78;;
38859;SDS011;24609;48.316;16.174;2023-04-30T03:15:01;8.77;;;6.15;;
38859;SDS011;24609;48.316;16.174;2023-04-30T03:17:26;8.90;;;6.18;;
38859;SDS011;24609;48.316;16.174;2023-04-30T03:19:52;11.23;;;6.50;;
38859;SDS011;24609;48.316;16.174;2023-04-30T03:22:18;12.93;;;6.63;;
38859;SDS011;24609;48.316;16.174;2023-04-30T03:24:44;7.45;;;4.40;;
38859;SDS011;24609;48.316;16.174;2023-04-30T03:27:10;11.40;;;5.40;;
38859;SDS011;24609;48.316;16.174;2023-04-30T03:29:36;11.50;;;5.25;;
38859;SDS011;24609;48.316;16.174;2023-04-30T03:32:02;11.63;;;6.05;;
38859;SDS011;24609;48.316;16.174;2023-04-30T03:34:27;11.00;;;5.10;;
38859;SDS011;24609;48.316;16.174;2023-04-30T03:36:55;11.55;;;6.38;;
38859;SDS011;24609;48.316;16.174;2023-04-30T03:39:21;12.02;;;5.97;;
38859;SDS011;24609;48.316;16.174;2023-04-30T03:41:47;8.60;;;5.20;;
38859;SDS011;24609;48.316;16.174;2023-04-30T03:44:12;15.00;;;5.85;;
38859;SDS011;24609;48.316;16.174;2023-04-30T03:46:40;9.85;;;5.45;;
38859;SDS011;24609;48.316;16.174;2023-04-30T03:49:07;9.75;;;5.85;;
38859;SDS011;24609;48.316;16.174;2023-04-30T03:51:33;9.65;;;5.35;;
38859;SDS011;24609;48.316;16.174;2023-04-30T03:54:03;8.95;;;5.80;;
38859;SDS011;24609;48.316;16.174;2023-04-30T03:56:30;12.13;;;5.35;;
38859;SDS011;24609;48.316;16.174;2023-04-30T03:58:56;10.57;;;5.53;;
38859;SDS011;24609;48.316;16.174;2023-04-30T04:01:22;8.57;;;5.00;;
38859;SDS011;24609;48.316;16.174;2023-04-30T04:03:48;11.68;;;5.63;;
38859;SDS011;24609;48.316;16.174;2023-04-30T04:06:14;8.40;;;5.35;;
38859;SDS011;24609;48.316;16.174;2023-04-30T04:08:39;9.55;;;6.05;;
38859;SDS011;24609;48.316;16.174;2023-04-30T04:11:07;11.88;;;6.25;;
38859;SDS011;24609;48.316;16.174;2023-04-30T04:16:02;10.30;;;5.90;;
38859;SDS011;24609;48.316;16.174;2023-04-30T04:18:27;10.77;;;5.72;;
38859;SDS011;24609;48.316;16.174;2023-04-30T04:20:54;9.55;;;5.15;;
38859;SDS011;24609;48.316;16.174;2023-04-30T04:23:20;8.88;;;4.80;;
38859;SDS011;24609;48.316;16.174;2023-04-30T04:25:46;8.27;;;5.00;;
38859;SDS011;24609;48.316;16.174;2023-04-30T04:28:14;8.38;;;5.22;;
38859;SDS011;24609;48.316;16.174;2023-04-30T04:30:40;8.45;;;4.70;;
38859;SDS011;24609;48.316;16.174;2023-04-30T04:33:07;10.70;;;5.80;;
38859;SDS011;24609;48.316;16.174;2023-04-30T04:35:33;9.13;;;5.05;;
38859;SDS011;24609;48.316;16.174;2023-04-30T04:37:59;10.10;;;4.78;;
38859;SDS011;24609;48.316;16.174;2023-04-30T04:40:25;7.88;;;4.97;;
38859;SDS011;24609;48.316;16.174;2023-04-30T04:42:51;11.18;;;5.53;;
38859;SDS011;24609;48.316;16.174;2023-04-30T04:45:16;7.07;;;4.25;;
38859;SDS011;24609;48.316;16.174;2023-04-30T04:47:44;7.40;;;4.60;;
38859;SDS011;24609;48.316;16.174;2023-04-30T04:50:10;10.98;;;5.07;;
38859;SDS011;24609;48.316;16.174;2023-04-30T04:52:36;7.75;;;4.53;;
38859;SDS011;24609;48.316;16.174;2023-04-30T04:55:03;8.93;;;5.72;;
38859;SDS011;24609;48.316;16.174;2023-04-30T04:57:29;8.52;;;4.93;;
38859;SDS011;24609;48.316;16.174;2023-04-30T04:59:55;9.02;;;4.93;;
38859;SDS011;24609;48.316;16.174;2023-04-30T05:02:21;9.95;;;4.40;;
38859;SDS011;24609;48.316;16.174;2023-04-30T05:04:47;7.00;;;4.38;;
38859;SDS011;24609;48.316;16.174;2023-04-30T05:07:15;7.55;;;5.05;;
38859;SDS011;24609;48.316;16.174;2023-04-30T05:09:41;6.80;;;4.35;;
38859;SDS011;24609;48.316;16.174;2023-04-30T05:12:07;11.45;;;5.20;;
38859;SDS011;24609;48.316;16.174;2023-04-30T05:14:33;10.30;;;5.88;;
38859;SDS011;24609;48.316;16.174;2023-04-30T05:16:59;8.15;;;4.90;;
38859;SDS011;24609;48.316;16.174;2023-04-30T05:19:25;9.13;;;5.03;;
38859;SDS011;24609;48.316;16.174;2023-04-30T05:21:51;9.55;;;6.07;;
38859;SDS011;24609;48.316;16.174;2023-04-30T05:24:16;8.38;;;4.97;;
38859;SDS011;24609;48.316;16.174;2023-04-30T05:26:42;8.43;;;4.53;;
38859;SDS011;24609;48.316;16.174;2023-04-30T05:29:08;9.95;;;5.45;;
38859;SDS011;24609;48.316;16.174;2023-04-30T05:31:36;9.35;;;5.43;;
38859;SDS011;24609;48.316;16.174;2023-04-30T05:34:01;9.10;;;5.53;;
38859;SDS011;24609;48.316;16.174;2023-04-30T05:36:27;9.50;;;5.75;;
38859;SDS011;24609;48.316;16.174;2023-04-30T05:38:53;9.93;;;5.80;;
38859;SDS011;24609;48.316;16.174;2023-04-30T05:41:20;9.70;;;5.22;;
38859;SDS011;24609;48.316;16.174;2023-04-30T05:43:46;10.63;;;4.88;;
38859;SDS011;24609;48.316;16.174;2023-04-30T05:46:11;13.30;;;6.00;;
38859;SDS011;24609;48.316;16.174;2023-04-30T05:48:37;10.27;;;5.93;;
38859;SDS011;24609;48.316;16.174;2023-04-30T05:51:04;13.15;;;6.65;;
38859;SDS011;24609;48.316;16.174;2023-04-30T05:53:34;12.52;;;5.82;;
38859;SDS011;24609;48.316;16.174;2023-04-30T05:56:00;11.70;;;5.63;;
38859;SDS011;24609;48.316;16.174;2023-04-30T05:58:27;6.95;;;4.88;;
38859;SDS011;24609;48.316;16.174;2023-04-30T06:00:57;7.10;;;4.97;;
38859;SDS011;24609;48.316;16.174;2023-04-30T06:03:23;7.47;;;5.53;;
38859;SDS011;24609;48.316;16.174;2023-04-30T06:05:49;8.32;;;5.28;;
38859;SDS011;24609;48.316;16.174;2023-04-30T06:08:14;7.95;;;4.47;;
38859;SDS011;24609;48.316;16.174;2023-04-30T06:10:40;8.50;;;4.90;;
38859;SDS011;24609;48.316;16.174;2023-04-30T06:13:06;10.05;;;5.28;;
38859;SDS011;24609;48.316;16.174;2023-04-30T06:15:32;8.52;;;5.45;;
38859;SDS011;24609;48.316;16.174;2023-04-30T06:17:57;7.65;;;5.25;;
38859;SDS011;24609;48.316;16.174;2023-04-30T06:20:23;8.10;;;4.70;;
38859;SDS011;24609;48.316;16.174;2023-04-30T06:22:51;7.47;;;5.05;;
38859;SDS011;24609;48.316;16.174;2023-04-30T06:25:16;8.30;;;5.10;;
38859;SDS011;24609;48.316;16.174;2023-04-30T06:27:42;8.88;;;4.97;;
38859;SDS011;24609;48.316;16.174;2023-04-30T06:30:08;7.05;;;4.85;;
38859;SDS011;24609;48.316;16.174;2023-04-30T06:32:36;8.90;;;5.80;;
38859;SDS011;24609;48.316;16.174;2023-04-30T06:35:02;11.45;;;4.43;;
38859;SDS011;24609;48.316;16.174;2023-04-30T06:37:28;7.32;;;5.20;;
38859;SDS011;24609;48.316;16.174;2023-04-30T06:39:59;8.52;;;5.40;;
38859;SDS011;24609;48.316;16.174;2023-04-30T06:42:25;7.20;;;4.63;;
38859;SDS011;24609;48.316;16.174;2023-04-30T06:44:52;6.72;;;4.78;;
38859;SDS011;24609;48.316;16.174;2023-04-30T06:47:19;9.60;;;5.28;;
38859;SDS011;24609;48.316;16.174;2023-04-30T06:49:45;9.13;;;5.10;;
38859;SDS011;24609;48.316;16.174;2023-04-30T06:52:10;8.93;;;5.45;;
38859;SDS011;24609;48.316;16.174;2023-04-30T06:54:36;7.80;;;5.50;;
38859;SDS011;24609;48.316;16.174;2023-04-30T06:57:04;8.90;;;4.82;;
38859;SDS011;24609;48.316;16.174;2023-04-30T06:59:31;8.65;;;5.20;;
38859;SDS011;24609;48.316;16.174;2023-04-30T07:01:56;9.95;;;4.65;;
38859;SDS011;24609;48.316;16.174;2023-04-30T07:04:22;10.25;;;5.70;;
38859;SDS011;24609;48.316;16.174;2023-04-30T07:06:48;8.50;;;5.90;;
38859;SDS011;24609;48.316;16.174;2023-04-30T07:09:14;9.40;;;5.45;;
38859;SDS011;24609;48.316;16.174;2023-04-30T07:11:41;10.50;;;5.68;;
38859;SDS011;24609;48.316;16.174;2023-04-30T07:14:06;8.43;;;5.28;;
38859;SDS011;24609;48.316;16.174;2023-04-30T07:16:32;11.40;;;5.35;;
38859;SDS011;24609;48.316;16.174;2023-04-30T07:18:58;8.55;;;5.00;;
38859;SDS011;24609;48.316;16.174;2023-04-30T07:21:24;9.85;;;5.30;;
38859;SDS011;24609;48.316;16.174;2023-04-30T07:23:50;7.32;;;3.95;;
38859;SDS011;24609;48.316;16.174;2023-04-30T07:26:15;6.82;;;4.57;;
38859;SDS011;24609;48.316;16.174;2023-04-30T07:28:41;8.60;;;4.85;;
38859;SDS011;24609;48.316;16.174;2023-04-30T07:31:07;6.63;;;4.55;;
38859;SDS011;24609;48.316;16.174;2023-04-30T07:33:32;6.47;;;3.63;;
38859;SDS011;24609;48.316;16.174;2023-04-30T07:35:58;6.78;;;4.15;;
38859;SDS011;24609;48.316;16.174;2023-04-30T07:38:24;7.55;;;3.78;;
38859;SDS011;24609;48.316;16.174;2023-04-30T07:40:49;6.50;;;3.53;;
38859;SDS011;24609;48.316;16.174;2023-04-30T07:43:15;6.25;;;3.65;;
38859;SDS011;24609;48.316;16.174;2023-04-30T07:45:41;7.50;;;4.00;;
38859;SDS011;24609;48.316;16.174;2023-04-30T07:48:07;8.80;;;4.13;;
38859;SDS011;24609;48.316;16.174;2023-04-30T07:50:32;5.95;;;4.22;;
38859;SDS011;24609;48.316;16.174;2023-04-30T07:52:58;6.65;;;3.83;;
38859;SDS011;24609;48.316;16.174;2023-04-30T07:55:25;6.72;;;4.28;;
38859;SDS011;24609;48.316;16.174;2023-04-30T07:57:51;8.48;;;4.65;;
38859;SDS011;24609;48.316;16.174;2023-04-30T08:00:16;7.60;;;3.97;;
38859;SDS011;24609;48.316;16.174;2023-04-30T08:02:42;7.68;;;3.65;;
38859;SDS011;24609;48.316;16.174;2023-04-30T08:05:09;6.05;;;4.47;;
38859;SDS011;24609;48.316;16.174;2023-04-30T08:07:35;7.97;;;4.18;;
38859;SDS011;24609;48.316;16.174;2023-04-30T08:10:01;7.93;;;4.20;;
38859;SDS011;24609;48.316;16.174;2023-04-30T08:12:27;8.38;;;4.57;;
38859;SDS011;24609;48.316;16.174;2023-04-30T08:15:02;7.80;;;4.22;;
38859;SDS011;24609;48.316;16.174;2023-04-30T08:17:29;7.88;;;4.40;;
38859;SDS011;24609;48.316;16.174;2023-04-30T08:19:56;8.68;;;4.82;;
38859;SDS011;24609;48.316;16.174;2023-04-30T08:22:21;8.45;;;4.78;;
38859;SDS011;24609;48.316;16.174;2023-04-30T08:24:47;9.35;;;5.03;;
38859;SDS011;24609;48.316;16.174;2023-04-30T08:27:14;7.57;;;5.00;;
38859;SDS011;24609;48.316;16.174;2023-04-30T08:29:40;7.60;;;4.20;;
38859;SDS011;24609;48.316;16.174;2023-04-30T08:32:06;6.82;;;4.38;;
38859;SDS011;24609;48.316;16.174;2023-04-30T08:34:32;8.23;;;4.93;;
38859;SDS011;24609;48.316;16.174;2023-04-30T08:36:58;8.95;;;5.10;;
38859;SDS011;24609;48.316;16.174;2023-04-30T08:39:25;11.75;;;5.05;;
38859;SDS011;24609;48.316;16.174;2023-04-30T08:41:53;9.82;;;5.38;;
38859;SDS011;24609;48.316;16.174;2023-04-30T08:44:20;9.07;;;4.63;;
38859;SDS011;24609;48.316;16.174;2023-04-30T08:46:50;10.57;;;5.03;;
38859;SDS011;24609;48.316;16.174;2023-04-30T08:49:20;11.10;;;4.80;;
38859;SDS011;24609;48.316;16.174;2023-04-30T08:51:46;7.30;;;5.18;;
38859;SDS011;24609;48.316;16.174;2023-04-30T08:54:12;7.68;;;4.68;;
38859;SDS011;24609;48.316;16.174;2023-04-30T08:56:38;8.60;;;4.95;;
38859;SDS011;24609;48.316;16.174;2023-04-30T08:59:05;11.45;;;5.25;;
38859;SDS011;24609;48.316;16.174;2023-04-30T09:01:32;10.02;;;5.55;;
38859;SDS011;24609;48.316;16.174;2023-04-30T09:03:59;11.88;;;5.35;;
38859;SDS011;24609;48.316;16.174;2023-04-30T09:06:26;11.55;;;5.45;;
38859;SDS011;24609;48.316;16.174;2023-04-30T09:08:52;9.95;;;5.30;;
38859;SDS011;24609;48.316;16.174;2023-04-30T09:11:22;8.50;;;5.50;;
38859;SDS011;24609;48.316;16.174;2023-04-30T09:13:49;9.40;;;5.32;;
38859;SDS011;24609;48.316;16.174;2023-04-30T09:16:22;8.93;;;5.78;;
38859;SDS011;24609;48.316;16.174;2023-04-30T09:18:50;10.30;;;5.70;;
38859;SDS011;24609;48.316;16.174;2023-04-30T09:21:16;9.50;;;5.72;;
38859;SDS011;24609;48.316;16.174;2023-04-30T09:23:58;9.82;;;6.30;;
38859;SDS011;24609;48.316;16.174;2023-04-30T09:26:26;8.48;;;4.60;;
38859;SDS011;24609;48.316;16.174;2023-04-30T09:28:55;9.70;;;6.03;;
38859;SDS011;24609;48.316;16.174;2023-04-30T09:31:22;12.10;;;5.97;;
38859;SDS011;24609;48.316;16.174;2023-04-30T09:33:49;8.80;;;5.75;;
38859;SDS011;24609;48.316;16.174;2023-04-30T09:36:15;9.88;;;5.85;;
38859;SDS011;24609;48.316;16.174;2023-04-30T09:38:41;14.05;;;5.95;;
38859;SDS011;24609;48.316;16.174;2023-04-30T09:41:07;9.82;;;6.57;;
38859;SDS011;24609;48.316;16.174;2023-04-30T09:43:55;8.55;;;5.28;;
38859;SDS011;24609;48.316;16.174;2023-04-30T09:46:29;6.68;;;4.60;;
38859;SDS011;24609;48.316;16.174;2023-04-30T09:48:56;9.52;;;5.40;;
38859;SDS011;24609;48.316;16.174;2023-04-30T09:51:24;8.90;;;6.72;;
38859;SDS011;24609;48.316;16.174;2023-04-30T09:53:51;7.38;;;5.00;;
38859;SDS011;24609;48.316;16.174;2023-04-30T09:56:24;8.63;;;5.30;;
38859;SDS011;24609;48.316;16.174;2023-04-30T09:58:52;10.70;;;6.18;;
38859;SDS011;24609;48.316;16.174;2023-04-30T10:01:20;10.35;;;6.03;;
38859;SDS011;24609;48.316;16.174;2023-04-30T10:03:46;13.63;;;5.63;;
38859;SDS011;24609;48.316;16.174;2023-04-30T10:06:13;8.45;;;5.57;;
38859;SDS011;24609;48.316;16.174;2023-04-30T10:08:45;9.75;;;6.30;;
38859;SDS011;24609;48.316;16.174;2023-04-30T10:11:14;10.73;;;6.35;;
38859;SDS011;24609;48.316;16.174;2023-04-30T10:13:58;11.65;;;6.55;;
38859;SDS011;24609;48.316;16.174;2023-04-30T10:17:10;13.60;;;6.45;;
38859;SDS011;24609;48.316;16.174;2023-04-30T10:19:19;10.52;;;5.75;;
38859;SDS011;24609;48.316;16.174;2023-04-30T10:21:54;10.07;;;6.00;;
38859;SDS011;24609;48.316;16.174;2023-04-30T10:24:20;7.28;;;4.90;;
38859;SDS011;24609;48.316;16.174;2023-04-30T10:26:46;12.05;;;5.93;;
38859;SDS011;24609;48.316;16.174;2023-04-30T10:29:13;8.65;;;5.53;;
38859;SDS011;24609;48.316;16.174;2023-04-30T10:31:44;9.32;;;6.15;;
38859;SDS011;24609;48.316;16.174;2023-04-30T10:36:53;7.80;;;4.90;;
38859;SDS011;24609;48.316;16.174;2023-04-30T10:39:27;7.47;;;5.75;;
38859;SDS011;24609;48.316;16.174;2023-04-30T10:42:03;11.75;;;5.45;;
38859;SDS011;24609;48.316;16.174;2023-04-30T10:44:34;9.48;;;5.18;;
38859;SDS011;24609;48.316;16.174;2023-04-30T10:47:01;12.00;;;6.63;;
38859;SDS011;24609;48.316;16.174;2023-04-30T10:49:28;8.43;;;5.03;;
38859;SDS011;24609;48.316;16.174;2023-04-30T10:51:57;8.18;;;5.53;;
38859;SDS011;24609;48.316;16.174;2023-04-30T10:54:26;7.93;;;5.00;;
38859;SDS011;24609;48.316;16.174;2023-04-30T10:56:53;8.23;;;5.20;;
38859;SDS011;24609;48.316;16.174;2023-04-30T10:59:33;9.57;;;5.47;;
38859;SDS011;24609;48.316;16.174;2023-04-30T11:01:59;8.93;;;5.20;;
38859;SDS011;24609;48.316;16.174;2023-04-30T11:04:26;8.48;;;5.82;;
38859;SDS011;24609;48.316;16.174;2023-04-30T11:09:18;10.90;;;6.13;;
38859;SDS011;24609;48.316;16.174;2023-04-30T11:11:49;13.65;;;5.95;;
38859;SDS011;24609;48.316;16.174;2023-04-30T11:14:33;10.18;;;4.72;;
38859;SDS011;24609;48.316;16.174;2023-04-30T11:16:59;9.63;;;5.35;;
38859;SDS011;24609;48.316;16.174;2023-04-30T11:19:27;10.18;;;5.32;;
38859;SDS011;24609;48.316;16.174;2023-04-30T11:24:50;9.48;;;5.38;;
38859;SDS011;24609;48.316;16.174;2023-04-30T11:27:27;8.55;;;5.38;;
38859;SDS011;24609;48.316;16.174;2023-04-30T11:29:54;12.27;;;5.93;;
38859;SDS011;24609;48.316;16.174;2023-04-30T11:32:22;7.65;;;4.65;;
38859;SDS011;24609;48.316;16.174;2023-04-30T11:34:49;8.43;;;5.32;;
38859;SDS011;24609;48.316;16.174;2023-04-30T11:37:18;8.27;;;4.75;;
38859;SDS011;24609;48.316;16.174;2023-04-30T11:39:45;7.20;;;5.10;;
38859;SDS011;24609;48.316;16.174;2023-04-30T11:42:16;7.78;;;5.13;;
38859;SDS011;24609;48.316;16.174;2023-04-30T11:44:43;5.95;;;4.20;;
38859;SDS011;24609;48.316;16.174;2023-04-30T11:47:09;8.27;;;5.07;;
38859;SDS011;24609;48.316;16.174;2023-04-30T11:49:36;8.57;;;5.53;;
38859;SDS011;24609;48.316;16.174;2023-04-30T11:52:01;9.68;;;5.78;;
38859;SDS011;24609;48.316;16.174;2023-04-30T11:54:30;8.10;;;5.25;;
38859;SDS011;24609;48.316;16.174;2023-04-30T11:56:56;11.07;;;5.97;;
38859;SDS011;24609;48.316;16.174;2023-04-30T11:59:27;9.18;;;6.15;;
38859;SDS011;24609;48.316;16.174;2023-04-30T12:02:04;8.35;;;5.80;;
38859;SDS011;24609;48.316;16.174;2023-04-30T12:04:30;8.43;;;5.28;;
38859;SDS011;24609;48.316;16.174;2023-04-30T12:06:56;8.77;;;5.35;;
38859;SDS011;24609;48.316;16.174;2023-04-30T12:09:22;8.07;;;5.07;;
38859;SDS011;24609;48.316;16.174;2023-04-30T12:11:48;6.60;;;4.38;;
38859;SDS011;24609;48.316;16.174;2023-04-30T12:14:14;6.15;;;4.18;;
38859;SDS011;24609;48.316;16.174;2023-04-30T12:19:08;7.63;;;4.70;;
38859;SDS011;24609;48.316;16.174;2023-04-30T12:21:34;7.25;;;4.53;;
38859;SDS011;24609;48.316;16.174;2023-04-30T12:24:00;8.25;;;4.57;;
38859;SDS011;24609;48.316;16.174;2023-04-30T12:26:38;4.78;;;3.60;;
38859;SDS011;24609;48.316;16.174;2023-04-30T12:29:07;5.25;;;3.63;;
38859;SDS011;24609;48.316;16.174;2023-04-30T12:31:35;6.35;;;3.90;;
38859;SDS011;24609;48.316;16.174;2023-04-30T12:34:04;6.80;;;4.55;;
38859;SDS011;24609;48.316;16.174;2023-04-30T12:36:34;5.95;;;4.57;;
38859;SDS011;24609;48.316;16.174;2023-04-30T12:39:05;6.82;;;4.38;;
38859;SDS011;24609;48.316;16.174;2023-04-30T12:41:38;7.38;;;4.47;;
38859;SDS011;24609;48.316;16.174;2023-04-30T12:44:15;6.18;;;4.53;;
38859;SDS011;24609;48.316;16.174;2023-04-30T12:46:42;5.72;;;3.85;;
38859;SDS011;24609;48.316;16.174;2023-04-30T12:49:10;7.25;;;4.90;;
38859;SDS011;24609;48.316;16.174;2023-04-30T12:51:36;9.10;;;4.90;;
38859;SDS011;24609;48.316;16.174;2023-04-30T12:54:05;6.10;;;4.50;;
38859;SDS011;24609;48.316;16.174;2023-04-30T12:56:31;9.55;;;5.60;;
38859;SDS011;24609;48.316;16.174;2023-04-30T12:58:56;7.10;;;4.57;;
38859;SDS011;24609;48.316;16.174;2023-04-30T13:01:22;7.43;;;5.22;;
38859;SDS011;24609;48.316;16.174;2023-04-30T13:03:49;8.63;;;4.47;;
38859;SDS011;24609;48.316;16.174;2023-04-30T13:06:16;5.97;;;4.40;;
38859;SDS011;24609;48.316;16.174;2023-04-30T13:08:42;6.00;;;4.68;;
38859;SDS011;24609;48.316;16.174;2023-04-30T13:11:09;7.18;;;4.80;;
38859;SDS011;24609;48.316;16.174;2023-04-30T13:13:35;6.07;;;4.25;;
38859;SDS011;24609;48.316;16.174;2023-04-30T13:16:01;7.28;;;4.47;;
38859;SDS011;24609;48.316;16.174;2023-04-30T13:18:26;8.02;;;4.90;;
38859;SDS011;24609;48.316;16.174;2023-04-30T13:20:52;9.52;;;4.18;;
38859;SDS011;24609;48.316;16.174;2023-04-30T13:23:18;5.70;;;4.15;;
38859;SDS011;24609;48.316;16.174;2023-04-30T13:25:43;6.22;;;4.20;;
38859;SDS011;24609;48.316;16.174;2023-04-30T13:28:09;6.93;;;3.92;;
38859;SDS011;24609;48.316;16.174;2023-04-30T13:30:35;5.43;;;2.95;;
38859;SDS011;24609;48.316;16.174;2023-04-30T13:33:01;6.60;;;3.75;;
38859;SDS011;24609;48.316;16.174;2023-04-30T13:35:27;6.45;;;3.50;;
38859;SDS011;24609;48.316;16.174;2023-04-30T13:37:53;6.03;;;4.20;;
38859;SDS011;24609;48.316;16.174;2023-04-30T13:40:19;6.82;;;4.40;;
38859;SDS011;24609;48.316;16.174;2023-04-30T13:42:46;8.27;;;3.78;;
38859;SDS011;24609;48.316;16.174;2023-04-30T13:45:13;4.63;;;3.60;;
38859;SDS011;24609;48.316;16.174;2023-04-30T13:47:38;7.65;;;3.55;;
38859;SDS011;24609;48.316;16.174;2023-04-30T13:50:05;6.47;;;3.25;;
38859;SDS011;24609;48.316;16.174;2023-04-30T13:52:32;5.38;;;3.00;;
38859;SDS011;24609;48.316;16.174;2023-04-30T13:54:58;4.63;;;3.45;;
38859;SDS011;24609;48.316;16.174;2023-04-30T13:57:24;4.22;;;3.40;;
38859;SDS011;24609;48.316;16.174;2023-04-30T13:59:50;4.05;;;2.65;;
38859;SDS011;24609;48.316;16.174;2023-04-30T14:02:16;4.22;;;3.08;;
38859;SDS011;24609;48.316;16.174;2023-04-30T14:04:42;4.28;;;3.00;;
38859;SDS011;24609;48.316;16.174;2023-04-30T14:07:08;5.95;;;3.28;;
38859;SDS011;24609;48.316;16.174;2023-04-30T14:09:35;3.60;;;2.85;;
38859;SDS011;24609;48.316;16.174;2023-04-30T14:12:01;5.57;;;3.42;;
38859;SDS011;24609;48.316;16.174;2023-04-30T14:14:27;4.82;;;2.80;;
38859;SDS011;24609;48.316;16.174;2023-04-30T14:16:53;4.57;;;3.13;;
38859;SDS011;24609;48.316;16.174;2023-04-30T14:19:22;5.20;;;3.03;;
38859;SDS011;24609;48.316;16.174;2023-04-30T14:21:48;5.55;;;3.08;;
38859;SDS011;24609;48.316;16.174;2023-04-30T14:24:13;4.93;;;3.08;;
38859;SDS011;24609;48.316;16.174;2023-04-30T14:26:42;4.18;;;2.70;;
38859;SDS011;24609;48.316;16.174;2023-04-30T14:29:09;4.00;;;2.58;;
38859;SDS011;24609;48.316;16.174;2023-04-30T14:31:35;3.55;;;2.63;;
38859;SDS011;24609;48.316;16.174;2023-04-30T14:34:01;4.30;;;2.72;;
38859;SDS011;24609;48.316;16.174;2023-04-30T14:36:26;4.50;;;2.72;;
38859;SDS011;24609;48.316;16.174;2023-04-30T14:38:52;4.05;;;2.67;;
38859;SDS011;24609;48.316;16.174;2023-04-30T14:41:18;4.30;;;2.92;;
38859;SDS011;24609;48.316;16.174;2023-04-30T14:43:45;4.45;;;2.97;;
38859;SDS011;24609;48.316;16.174;2023-04-30T14:46:10;5.13;;;3.03;;
38859;SDS011;24609;48.316;16.174;2023-04-30T14:48:36;5.47;;;2.70;;
38859;SDS011;24609;48.316;16.174;2023-04-30T14:51:02;4.72;;;2.70;;
38859;SDS011;24609;48.316;16.174;2023-04-30T14:53:28;4.55;;;2.90;;
38859;SDS011;24609;48.316;16.174;2023-04-30T14:55:54;4.05;;;2.88;;
38859;SDS011;24609;48.316;16.174;2023-04-30T14:58:20;8.75;;;3.15;;
38859;SDS011;24609;48.316;16.174;2023-04-30T15:00:46;2.72;;;2.20;;
38859;SDS011;24609;48.316;16.174;2023-04-30T15:03:15;5.43;;;2.95;;